createdAt,value
2023-03-31T00:01:28.325Z,100.00
2023-03-31T00:04:07.243Z,100.00
2023-03-31T00:06:43.337Z,100.00
2023-03-31T00:09:19.137Z,100.00
2023-03-31T00:11:52.883Z,100.00
2023-03-31T00:14:26.711Z,100.00
2023-03-31T00:17:22.631Z,100.00
2023-03-31T00:20:01.802Z,100.00
2023-03-31T00:22:55.163Z,100.00
2023-03-31T00:25:35.337Z,100.00
2023-03-31T00:28:28.249Z,100.00
2023-03-31T00:31:30.017Z,100.00
2023-03-31T00:34:02.686Z,99.60
2023-03-31T00:36:38.006Z,99.77
2023-03-31T00:39:30.674Z,99.29
2023-03-31T00:42:11.866Z,98.24
2023-03-31T00:45:05.977Z,97.04
2023-03-31T00:47:38.721Z,96.89
2023-03-31T00:50:16.800Z,98.27
2023-03-31T00:52:50.421Z,97.94
2023-03-31T00:55:25.988Z,94.93
2023-03-31T00:58:08.122Z,95.04
2023-03-31T01:00:41.926Z,95.57
2023-03-31T01:03:16.266Z,95.79
2023-03-31T01:06:28.660Z,95.85
2023-03-31T01:09:23.232Z,96.87
2023-03-31T01:11:51.534Z,96.72
2023-03-31T01:14:30.569Z,97.49
2023-03-31T01:17:11.537Z,98.50
2023-03-31T01:20:13.369Z,100.00
2023-03-31T01:23:13.184Z,100.00
2023-03-31T01:26:19.738Z,100.00
2023-03-31T01:29:17.483Z,100.00
2023-03-31T01:32:03.976Z,100.00
2023-03-31T01:35:09.608Z,100.00
2023-03-31T01:38:09.012Z,100.00
2023-03-31T01:40:57.049Z,100.00
2023-03-31T01:43:57.463Z,100.00
2023-03-31T01:46:38.586Z,100.00
2023-03-31T01:49:32.674Z,100.00
2023-03-31T01:52:30.037Z,100.00
2023-03-31T01:55:13.714Z,100.00
2023-03-31T01:58:03.000Z,100.00
2023-03-31T02:00:36.801Z,100.00
2023-03-31T02:03:13.145Z,100.00
2023-03-31T02:06:01.311Z,100.00
2023-03-31T02:09:02.122Z,100.00
2023-03-31T02:11:35.013Z,100.00
2023-03-31T02:14:17.645Z,100.00
2023-03-31T02:16:49.074Z,100.00
2023-03-31T02:19:33.186Z,100.00
2023-03-31T02:22:06.323Z,100.00
2023-03-31T02:24:46.886Z,100.00
2023-03-31T02:27:29.798Z,100.00
2023-03-31T02:30:02.950Z,100.00
2023-03-31T02:32:43.909Z,100.00
2023-03-31T02:35:41.845Z,100.00
2023-03-31T02:38:27.204Z,100.00
2023-03-31T02:41:22.098Z,100.00
2023-03-31T02:43:53.050Z,100.00
2023-03-31T02:46:35.029Z,100.00
2023-03-31T02:49:12.456Z,100.00
2023-03-31T02:51:50.088Z,100.00
2023-03-31T02:54:56.107Z,100.00
2023-03-31T02:57:51.343Z,100.00
2023-03-31T03:00:40.877Z,100.00
2023-03-31T03:03:42.761Z,100.00
2023-03-31T03:06:55.025Z,100.00
2023-03-31T03:09:48.258Z,100.00
2023-03-31T03:12:49.846Z,100.00
2023-03-31T03:15:32.096Z,100.00
2023-03-31T03:18:04.771Z,100.00
2023-03-31T03:20:37.908Z,100.00
2023-03-31T03:23:10.744Z,100.00
2023-03-31T03:25:43.995Z,100.00
2023-03-31T03:28:16.794Z,100.00
2023-03-31T03:30:45.525Z,100.00
2023-03-31T03:33:18.789Z,100.00
2023-03-31T03:36:00.956Z,100.00
2023-03-31T03:38:34.110Z,100.00
2023-03-31T03:41:17.417Z,100.00
2023-03-31T03:43:50.230Z,100.00
2023-03-31T03:46:23.271Z,100.00
2023-03-31T03:49:03.512Z,100.00
2023-03-31T03:51:44.762Z,100.00
2023-03-31T03:54:18.732Z,100.00
2023-03-31T03:56:51.593Z,100.00
2023-03-31T03:59:36.357Z,100.00
2023-03-31T04:02:21.486Z,100.00
2023-03-31T04:04:58.041Z,100.00
2023-03-31T04:07:30.884Z,100.00
2023-03-31T04:10:03.641Z,100.00
2023-03-31T04:12:31.680Z,100.00
2023-03-31T04:15:03.248Z,100.00
2023-03-31T04:17:38.315Z,100.00
2023-03-31T04:20:14.905Z,100.00
2023-03-31T04:22:47.599Z,100.00
2023-03-31T04:25:48.848Z,100.00
2023-03-31T04:28:21.521Z,100.00
2023-03-31T04:31:00.236Z,100.00
2023-03-31T04:33:40.505Z,100.00
2023-03-31T04:36:23.854Z,100.00
2023-03-31T04:38:56.050Z,100.00
2023-03-31T04:41:36.297Z,100.00
2023-03-31T04:44:09.237Z,100.00
2023-03-31T04:46:42.357Z,100.00
2023-03-31T04:49:18.053Z,100.00
2023-03-31T04:51:49.152Z,100.00
2023-03-31T04:54:19.956Z,100.00
2023-03-31T04:57:09.322Z,100.00
2023-03-31T04:59:48.056Z,100.00
2023-03-31T05:02:28.824Z,100.00
2023-03-31T05:07:54.402Z,100.00
2023-03-31T05:10:48.435Z,100.00
2023-03-31T05:13:24.022Z,100.00
2023-03-31T05:15:56.772Z,100.00
2023-03-31T05:18:35.634Z,100.00
2023-03-31T05:21:37.571Z,100.00
2023-03-31T05:24:11.011Z,100.00
2023-03-31T05:27:05.904Z,100.00
2023-03-31T05:29:41.609Z,100.00
2023-03-31T05:32:10.508Z,100.00
2023-03-31T05:34:44.684Z,100.00
2023-03-31T05:37:23.932Z,100.00
2023-03-31T05:39:57.417Z,100.00
2023-03-31T05:42:28.253Z,100.00
2023-03-31T05:45:01.182Z,100.00
2023-03-31T05:47:41.938Z,100.00
2023-03-31T05:50:12.472Z,100.00
2023-03-31T05:53:27.150Z,100.00
2023-03-31T05:56:01.795Z,100.00
2023-03-31T05:58:40.633Z,100.00
2023-03-31T06:01:25.568Z,100.00
2023-03-31T06:03:58.575Z,100.00
2023-03-31T06:06:29.962Z,100.00
2023-03-31T06:09:03.108Z,100.00
2023-03-31T06:11:35.923Z,100.00
2023-03-31T06:14:08.814Z,100.00
2023-03-31T06:17:07.368Z,100.00
2023-03-31T06:20:15.919Z,100.00
2023-03-31T06:22:48.992Z,100.00
2023-03-31T06:25:24.781Z,100.00
2023-03-31T06:28:05.362Z,100.00
2023-03-31T06:30:41.431Z,100.00
2023-03-31T06:33:26.021Z,100.00
2023-03-31T06:36:00.872Z,100.00
2023-03-31T06:38:31.920Z,100.00
2023-03-31T06:41:05.363Z,100.00
2023-03-31T06:43:44.883Z,100.00
2023-03-31T06:46:13.711Z,100.00
2023-03-31T06:48:57.194Z,100.00
2023-03-31T06:51:32.435Z,100.00
2023-03-31T06:54:07.956Z,100.00
2023-03-31T06:56:43.834Z,100.00
2023-03-31T06:59:16.722Z,100.00
2023-03-31T07:01:46.900Z,100.00
2023-03-31T07:04:22.372Z,100.00
2023-03-31T07:07:01.132Z,100.00
2023-03-31T07:09:57.641Z,100.00
2023-03-31T07:12:33.681Z,100.00
2023-03-31T07:15:05.983Z,100.00
2023-03-31T07:17:43.389Z,100.00
2023-03-31T07:20:18.015Z,100.00
2023-03-31T07:23:13.882Z,100.00
2023-03-31T07:25:59.741Z,100.00
2023-03-31T07:28:47.665Z,100.00
2023-03-31T07:31:21.914Z,100.00
2023-03-31T07:34:18.589Z,100.00
2023-03-31T07:37:12.650Z,100.00
2023-03-31T07:39:45.579Z,100.00
2023-03-31T07:42:18.356Z,100.00
2023-03-31T07:44:49.356Z,100.00
2023-03-31T07:47:36.646Z,100.00
2023-03-31T07:50:13.355Z,100.00
2023-03-31T07:52:46.663Z,100.00
2023-03-31T07:55:15.497Z,100.00
2023-03-31T07:57:51.213Z,100.00
2023-03-31T08:00:20.720Z,100.00
2023-03-31T08:03:13.860Z,100.00
2023-03-31T08:05:45.459Z,100.00
2023-03-31T08:08:13.388Z,100.00
2023-03-31T08:10:47.752Z,100.00
2023-03-31T08:13:30.821Z,100.00
2023-03-31T08:15:58.836Z,100.00
2023-03-31T08:18:32.598Z,100.00
2023-03-31T08:21:00.791Z,100.00
2023-03-31T08:23:28.921Z,100.00
2023-03-31T08:25:57.682Z,100.00
2023-03-31T08:28:43.036Z,100.00
2023-03-31T08:31:19.838Z,100.00
2023-03-31T08:33:52.903Z,97.37
2023-03-31T08:36:24.214Z,95.79
2023-03-31T08:39:18.474Z,93.66
2023-03-31T08:42:08.828Z,94.97
2023-03-31T08:45:05.745Z,92.41
2023-03-31T08:47:34.238Z,90.04
2023-03-31T08:50:15.542Z,91.22
2023-03-31T08:53:13.308Z,89.94
2023-03-31T08:55:51.277Z,91.74
2023-03-31T08:58:41.420Z,88.21
2023-03-31T09:01:52.200Z,91.35
2023-03-31T09:04:44.672Z,86.48
2023-03-31T09:07:25.130Z,84.85
2023-03-31T09:10:24.164Z,86.39
2023-03-31T09:13:08.336Z,84.83
2023-03-31T09:16:18.137Z,82.49
2023-03-31T09:18:48.227Z,83.21
2023-03-31T09:21:45.019Z,82.84
2023-03-31T09:24:32.087Z,83.43
2023-03-31T09:27:06.895Z,82.96
2023-03-31T09:29:43.998Z,83.07
2023-03-31T09:32:19.912Z,82.97
2023-03-31T09:34:48.693Z,83.77
2023-03-31T09:37:21.500Z,81.50
2023-03-31T09:39:56.250Z,83.95
2023-03-31T09:42:26.357Z,82.80
2023-03-31T09:45:00.473Z,79.46
2023-03-31T09:47:44.018Z,85.21
2023-03-31T09:50:17.708Z,88.70
2023-03-31T09:52:52.847Z,88.61
2023-03-31T09:55:38.805Z,87.79
2023-03-31T09:58:18.038Z,92.35
2023-03-31T10:01:11.439Z,95.19
2023-03-31T10:03:59.990Z,99.74
2023-03-31T10:06:28.462Z,100.00
2023-03-31T10:09:19.221Z,100.00
2023-03-31T10:12:17.567Z,100.00
2023-03-31T10:14:54.959Z,100.00
2023-03-31T10:17:24.865Z,100.00
2023-03-31T10:20:09.006Z,100.00
2023-03-31T10:22:37.757Z,99.38
2023-03-31T10:25:19.268Z,100.00
2023-03-31T10:27:53.989Z,100.00
2023-03-31T10:30:35.076Z,100.00
2023-03-31T10:33:19.241Z,99.36
2023-03-31T10:35:57.880Z,98.38
2023-03-31T10:38:45.005Z,92.94
2023-03-31T10:41:30.226Z,89.63
2023-03-31T10:44:05.733Z,90.91
2023-03-31T10:46:48.021Z,88.54
2023-03-31T10:49:29.249Z,87.77
2023-03-31T10:52:12.507Z,92.58
2023-03-31T10:54:54.688Z,84.62
2023-03-31T10:57:41.375Z,85.15
2023-03-31T11:00:25.955Z,81.43
2023-03-31T11:03:04.040Z,82.58
2023-03-31T11:05:45.028Z,88.00
2023-03-31T11:08:24.626Z,92.12
2023-03-31T11:11:06.454Z,80.51
2023-03-31T11:13:49.812Z,74.20
2023-03-31T11:16:42.642Z,71.79
2023-03-31T11:19:36.357Z,77.11
2023-03-31T11:22:49.932Z,76.93
2023-03-31T11:25:44.840Z,76.64
2023-03-31T11:28:33.297Z,68.37
2023-03-31T11:31:13.150Z,69.93
2023-03-31T11:34:15.075Z,72.06
2023-03-31T11:37:50.927Z,74.30
2023-03-31T11:41:15.686Z,76.69
2023-03-31T11:44:19.528Z,80.20
2023-03-31T11:47:15.830Z,79.79
2023-03-31T11:50:02.675Z,79.45
2023-03-31T11:52:57.741Z,68.13
2023-03-31T11:55:30.370Z,68.78
2023-03-31T11:58:10.075Z,61.51
2023-03-31T12:00:49.900Z,61.59
2023-03-31T12:03:35.037Z,59.61
2023-03-31T12:06:23.314Z,58.49
2023-03-31T12:09:06.887Z,59.76
2023-03-31T12:11:48.248Z,55.25
2023-03-31T12:14:36.630Z,55.57
2023-03-31T12:17:10.703Z,56.32
2023-03-31T12:20:01.105Z,54.27
2023-03-31T12:22:41.151Z,52.99
2023-03-31T12:25:16.383Z,51.94
2023-03-31T12:27:45.528Z,50.40
2023-03-31T12:30:57.464Z,51.18
2023-03-31T12:33:34.176Z,51.49
2023-03-31T12:36:21.922Z,54.48
2023-03-31T12:39:11.390Z,54.60
2023-03-31T12:42:17.165Z,56.32
2023-03-31T12:45:12.450Z,57.45
2023-03-31T12:47:59.434Z,51.40
2023-03-31T12:50:45.670Z,59.84
2023-03-31T12:53:26.653Z,64.70
2023-03-31T12:55:59.268Z,62.52
2023-03-31T12:58:35.504Z,66.02
2023-03-31T13:01:09.306Z,65.68
2023-03-31T13:03:58.563Z,65.50
2023-03-31T13:06:43.003Z,64.52
2023-03-31T13:09:25.506Z,63.28
2023-03-31T13:12:08.638Z,60.66
2023-03-31T13:14:49.962Z,55.91
2023-03-31T13:17:52.929Z,54.23
2023-03-31T13:20:47.626Z,54.89
2023-03-31T13:23:27.328Z,50.57
2023-03-31T13:26:01.466Z,48.37
2023-03-31T13:34:16.616Z,48.63
2023-03-31T13:37:15.802Z,49.84
2023-03-31T13:39:52.705Z,51.98
2023-03-31T13:42:56.198Z,52.03
2023-03-31T13:46:01.844Z,52.31
2023-03-31T13:48:52.283Z,54.19
2023-03-31T13:51:57.791Z,54.79
2023-03-31T13:55:26.471Z,55.07
2023-03-31T13:58:33.707Z,56.66
2023-03-31T14:01:30.295Z,57.63
2023-03-31T14:04:17.191Z,59.28
2023-03-31T14:07:08.980Z,60.00
2023-03-31T14:09:51.005Z,60.11
2023-03-31T14:12:45.939Z,60.76
2023-03-31T14:15:30.285Z,61.32
2023-03-31T14:18:25.045Z,62.20
2023-03-31T14:21:12.773Z,63.14
2023-03-31T14:24:21.057Z,66.90
2023-03-31T14:27:01.312Z,66.56
2023-03-31T14:30:02.731Z,66.26
2023-03-31T14:32:35.820Z,67.10
2023-03-31T14:35:23.811Z,66.68
2023-03-31T14:38:32.286Z,66.53
2023-03-31T14:41:03.464Z,67.09
2023-03-31T14:43:48.381Z,67.74
2023-03-31T14:46:23.551Z,67.95
2023-03-31T14:49:21.346Z,68.18
2023-03-31T14:52:17.996Z,66.24
2023-03-31T14:54:58.008Z,66.78
2023-03-31T14:57:37.280Z,63.38
2023-03-31T15:00:11.434Z,62.26
2023-03-31T15:03:07.556Z,60.48
2023-03-31T15:05:59.045Z,59.03
2023-03-31T15:08:41.277Z,57.54
2023-03-31T15:11:23.380Z,57.48
2023-03-31T15:14:05.425Z,56.97
2023-03-31T15:16:45.816Z,57.50
2023-03-31T15:19:55.612Z,57.09
2023-03-31T15:22:33.344Z,58.21
2023-03-31T15:25:11.407Z,67.11
2023-03-31T15:27:54.256Z,79.26
2023-03-31T15:30:37.559Z,78.45
2023-03-31T15:33:20.858Z,80.20
2023-03-31T15:39:07.958Z,85.62
2023-03-31T15:41:36.455Z,89.32
2023-03-31T15:44:44.384Z,87.43
2023-03-31T15:47:44.862Z,87.13
2023-03-31T15:50:18.322Z,89.09
2023-03-31T15:53:08.458Z,91.39
2023-03-31T15:56:06.617Z,91.38
2023-03-31T15:58:56.539Z,92.95
2023-03-31T16:01:29.408Z,93.04
2023-03-31T16:04:06.376Z,91.37
2023-03-31T16:06:57.380Z,93.01
2023-03-31T16:10:10.509Z,99.09
2023-03-31T16:13:02.893Z,94.00
2023-03-31T16:15:56.868Z,93.27
2023-03-31T16:18:46.592Z,94.56
2023-03-31T16:21:24.216Z,96.10
2023-03-31T16:24:01.906Z,96.67
2023-03-31T16:26:47.809Z,95.46
2023-03-31T16:29:26.517Z,96.02
2023-03-31T16:32:18.393Z,92.38
2023-03-31T16:35:04.391Z,92.65
2023-03-31T16:37:50.876Z,94.41
2023-03-31T16:40:33.266Z,94.06
2023-03-31T16:43:29.240Z,96.35
2023-03-31T16:46:05.408Z,96.07
2023-03-31T16:48:39.498Z,96.38
2023-03-31T16:51:35.699Z,94.43
2023-03-31T16:54:15.414Z,90.89
2023-03-31T16:56:47.234Z,88.68
2023-03-31T16:59:21.182Z,90.23
2023-03-31T17:02:03.069Z,92.04
2023-03-31T17:04:42.929Z,93.24
2023-03-31T17:07:18.896Z,94.61
2023-03-31T17:10:01.915Z,94.25
2023-03-31T17:13:11.136Z,94.39
2023-03-31T17:16:13.392Z,95.33
2023-03-31T17:18:50.844Z,94.25
2023-03-31T17:21:25.156Z,95.23
2023-03-31T17:23:53.666Z,95.81
2023-03-31T17:26:40.825Z,95.30
2023-03-31T17:29:09.110Z,96.61
2023-03-31T17:31:46.369Z,95.66
2023-03-31T17:34:26.347Z,94.87
2023-03-31T17:39:45.038Z,91.02
2023-03-31T17:42:18.536Z,90.74
2023-03-31T17:44:51.674Z,89.67
2023-03-31T17:47:34.663Z,90.29
2023-03-31T17:50:06.137Z,90.26
2023-03-31T17:55:36.471Z,89.57
2023-03-31T17:58:14.995Z,89.06
2023-03-31T18:00:57.758Z,88.86
2023-03-31T18:03:51.588Z,87.88
2023-03-31T18:06:34.544Z,86.77
2023-03-31T18:09:30.799Z,86.64
2023-03-31T18:12:11.042Z,85.31
2023-03-31T18:14:44.710Z,84.03
2023-03-31T18:17:38.392Z,82.71
2023-03-31T18:20:27.938Z,82.08
2023-03-31T18:23:36.544Z,81.49
2023-03-31T18:29:10.677Z,81.19
2023-03-31T18:31:50.078Z,80.48
2023-03-31T18:34:32.563Z,80.71
2023-03-31T18:37:06.945Z,81.63
2023-03-31T18:39:43.470Z,83.72
2023-03-31T18:42:39.624Z,84.39
2023-03-31T18:45:13.873Z,84.94
2023-03-31T18:48:02.104Z,83.60
2023-03-31T18:50:44.584Z,84.11
2023-03-31T18:53:27.796Z,85.63
2023-03-31T18:56:02.913Z,85.65
2023-03-31T18:59:02.199Z,85.77
2023-03-31T19:01:44.692Z,84.31
2023-03-31T19:04:20.652Z,84.69
2023-03-31T19:06:54.772Z,86.67
2023-03-31T19:09:37.092Z,88.23
2023-03-31T19:12:07.781Z,88.90
2023-03-31T19:14:50.634Z,90.67
2023-03-31T19:17:27.213Z,91.04
2023-03-31T19:20:05.711Z,91.08
2023-03-31T19:22:36.018Z,90.91
2023-03-31T19:25:08.432Z,90.32
2023-03-31T19:28:06.815Z,89.91
2023-03-31T19:30:38.392Z,90.78
2023-03-31T19:33:13.079Z,91.53
2023-03-31T19:35:47.232Z,91.67
2023-03-31T19:38:20.067Z,91.86
2023-03-31T19:40:52.954Z,92.64
2023-03-31T19:43:54.702Z,92.21
2023-03-31T19:46:33.731Z,92.68
2023-03-31T19:49:04.496Z,93.08
2023-03-31T19:51:49.906Z,92.65
2023-03-31T19:54:23.033Z,94.89
2023-03-31T19:57:16.696Z,93.12
2023-03-31T19:59:50.545Z,90.28
2023-03-31T20:02:19.316Z,90.84
2023-03-31T20:04:52.991Z,88.00
2023-03-31T20:07:26.097Z,88.82
2023-03-31T20:10:05.729Z,86.05
2023-03-31T20:12:38.770Z,86.61
2023-03-31T20:15:10.528Z,85.55
2023-03-31T20:17:40.654Z,85.13
2023-03-31T20:20:17.518Z,86.24
2023-03-31T20:23:12.002Z,85.92
2023-03-31T20:25:49.855Z,85.94
2023-03-31T20:28:24.176Z,85.75
2023-03-31T20:30:53.189Z,85.70
2023-03-31T20:33:29.289Z,85.55
2023-03-31T20:36:02.845Z,85.75
2023-03-31T20:38:38.141Z,85.40
2023-03-31T20:41:07.074Z,85.82
2023-03-31T20:43:38.174Z,85.84
2023-03-31T20:46:09.968Z,86.93
2023-03-31T20:48:48.013Z,85.18
2023-03-31T20:51:23.389Z,85.53
2023-03-31T20:53:54.241Z,85.98
2023-03-31T20:56:27.988Z,85.80
2023-03-31T20:59:09.951Z,85.96
2023-03-31T21:02:04.041Z,87.03
2023-03-31T21:04:36.866Z,87.75
2023-03-31T21:07:06.556Z,88.81
2023-03-31T21:09:39.718Z,87.90
2023-03-31T21:12:12.900Z,88.95
2023-03-31T21:14:41.110Z,91.01
2023-03-31T21:17:15.395Z,90.81
2023-03-31T21:19:55.872Z,92.50
2023-03-31T21:22:24.334Z,92.03
2023-03-31T21:24:58.285Z,91.16
2023-03-31T21:27:31.531Z,90.99
2023-03-31T21:30:07.864Z,91.02
2023-03-31T21:32:36.226Z,90.72
2023-03-31T21:35:10.005Z,89.77
2023-03-31T21:37:44.807Z,88.68
2023-03-31T21:40:18.512Z,88.28
2023-03-31T21:42:52.476Z,88.72
2023-03-31T21:45:20.967Z,87.82
2023-03-31T21:48:14.211Z,87.10
2023-03-31T21:50:51.469Z,87.50
2023-03-31T21:53:27.414Z,87.21
2023-03-31T21:56:00.294Z,87.55
2023-03-31T21:58:53.513Z,86.99
2023-03-31T22:01:23.038Z,86.50
2023-03-31T22:04:03.112Z,86.75
2023-03-31T22:06:31.538Z,85.91
2023-03-31T22:08:59.974Z,85.63
2023-03-31T22:11:54.031Z,84.99
2023-03-31T22:14:24.930Z,84.49
2023-03-31T22:16:58.995Z,84.15
2023-03-31T22:19:33.358Z,83.56
2023-03-31T22:22:06.985Z,83.97
2023-03-31T22:24:35.249Z,82.62
2023-03-31T22:27:28.872Z,83.24
2023-03-31T22:29:57.309Z,84.24
2023-03-31T22:32:36.172Z,82.54
2023-03-31T22:35:04.803Z,82.86
2023-03-31T22:37:38.768Z,82.33
2023-03-31T22:40:08.460Z,82.74
2023-03-31T22:42:41.332Z,82.33
2023-03-31T22:45:14.724Z,82.64
2023-03-31T22:47:55.255Z,82.91
2023-03-31T22:50:28.752Z,82.76
2023-03-31T22:52:57.071Z,82.50
2023-03-31T22:55:31.131Z,82.09
2023-03-31T22:57:59.520Z,82.33
2023-03-31T23:00:33.464Z,82.37
2023-03-31T23:03:06.363Z,82.63
2023-03-31T23:05:36.894Z,82.82
2023-03-31T23:08:13.326Z,83.12
2023-03-31T23:10:41.615Z,83.43
2023-03-31T23:13:14.629Z,83.77
2023-03-31T23:15:42.762Z,83.74
2023-03-31T23:18:15.566Z,84.02
2023-03-31T23:20:44.262Z,84.46
2023-03-31T23:23:26.565Z,84.80
2023-03-31T23:25:55.087Z,84.67
2023-03-31T23:28:23.531Z,84.24
2023-03-31T23:30:58.361Z,84.16
2023-03-31T23:33:40.589Z,84.08
2023-03-31T23:36:09.778Z,84.01
2023-03-31T23:38:42.921Z,83.34
2023-03-31T23:41:22.080Z,83.23
2023-03-31T23:43:53.065Z,83.18
2023-03-31T23:46:35.251Z,83.01
2023-03-31T23:49:06.247Z,82.88
2023-03-31T23:51:37.326Z,82.87
2023-03-31T23:54:08.106Z,85.99
2023-03-31T23:57:01.384Z,88.62
2023-03-31T23:59:33.074Z,89.22
